sensor_id;sensor_type;location;lat;lon;timestamp;temperature;humidity
78479;SHT31;67769;51.972;5.668;2024-03-06T00:00:06;7.9;76.5
78479;SHT31;67769;51.972;5.668;2024-03-06T00:02:35;7.8;76.7
78479;SHT31;67769;51.972;5.668;2024-03-06T00:05:04;7.7;77.0
78479;SHT31;67769;51.972;5.668;2024-03-06T00:07:34;7.7;77.0
78479;SHT31;67769;51.972;5.668;2024-03-06T00:10:03;7.7;76.6
78479;SHT31;67769;51.972;5.668;2024-03-06T00:12:32;7.7;76.5
78479;SHT31;67769;51.972;5.668;2024-03-06T00:15:00;7.7;76.4
78479;SHT31;67769;51.972;5.668;2024-03-06T00:17:30;7.6;76.5
78479;SHT31;67769;51.972;5.668;2024-03-06T00:19:58;7.6;76.4
78479;SHT31;67769;51.972;5.668;2024-03-06T00:22:29;7.6;76.4
78479;SHT31;67769;51.972;5.668;2024-03-06T00:24:58;7.6;76.2
78479;SHT31;67769;51.972;5.668;2024-03-06T00:27:26;7.5;76.0
78479;SHT31;67769;51.972;5.668;2024-03-06T00:29:54;7.5;75.9
78479;SHT31;67769;51.972;5.668;2024-03-06T00:32:23;7.4;75.8
78479;SHT31;67769;51.972;5.668;2024-03-06T00:34:54;7.4;75.8
78479;SHT31;67769;51.972;5.668;2024-03-06T00:37:22;7.3;76.2
78479;SHT31;67769;51.972;5.668;2024-03-06T00:39:51;7.3;76.4
78479;SHT31;67769;51.972;5.668;2024-03-06T00:42:20;7.3;76.3
78479;SHT31;67769;51.972;5.668;2024-03-06T00:44:48;7.2;76.3
78479;SHT31;67769;51.972;5.668;2024-03-06T00:47:17;7.2;76.4
78479;SHT31;67769;51.972;5.668;2024-03-06T00:49:46;7.2;76.4
78479;SHT31;67769;51.972;5.668;2024-03-06T00:52:15;7.1;76.5
78479;SHT31;67769;51.972;5.668;2024-03-06T00:54:43;7.1;76.6
78479;SHT31;67769;51.972;5.668;2024-03-06T00:57:12;7.1;76.6
78479;SHT31;67769;51.972;5.668;2024-03-06T00:59:40;7.0;76.6
78479;SHT31;67769;51.972;5.668;2024-03-06T01:02:09;7.0;76.6
78479;SHT31;67769;51.972;5.668;2024-03-06T01:04:37;6.9;76.5
78479;SHT31;67769;51.972;5.668;2024-03-06T01:07:06;6.9;76.7
78479;SHT31;67769;51.972;5.668;2024-03-06T01:09:35;6.8;76.9
78479;SHT31;67769;51.972;5.668;2024-03-06T01:12:03;6.8;76.9
78479;SHT31;67769;51.972;5.668;2024-03-06T01:14:32;6.8;76.6
78479;SHT31;67769;51.972;5.668;2024-03-06T01:17:00;6.7;76.6
78479;SHT31;67769;51.972;5.668;2024-03-06T01:19:29;6.6;76.7
78479;SHT31;67769;51.972;5.668;2024-03-06T01:21:58;6.6;77.0
78479;SHT31;67769;51.972;5.668;2024-03-06T01:24:26;6.5;77.2
78479;SHT31;67769;51.972;5.668;2024-03-06T01:26:55;6.5;77.2
78479;SHT31;67769;51.972;5.668;2024-03-06T01:29:25;6.5;77.3
78479;SHT31;67769;51.972;5.668;2024-03-06T01:31:53;6.5;77.5
78479;SHT31;67769;51.972;5.668;2024-03-06T01:34:22;6.5;77.7
78479;SHT31;67769;51.972;5.668;2024-03-06T01:36:51;6.5;77.2
78479;SHT31;67769;51.972;5.668;2024-03-06T01:39:21;6.5;76.8
78479;SHT31;67769;51.972;5.668;2024-03-06T01:41:50;6.5;76.8
78479;SHT31;67769;51.972;5.668;2024-03-06T01:44:20;6.4;76.9
78479;SHT31;67769;51.972;5.668;2024-03-06T01:46:48;6.4;76.9
78479;SHT31;67769;51.972;5.668;2024-03-06T01:49:18;6.4;76.7
78479;SHT31;67769;51.972;5.668;2024-03-06T01:51:51;6.3;76.6
78479;SHT31;67769;51.972;5.668;2024-03-06T01:54:20;6.3;76.7
78479;SHT31;67769;51.972;5.668;2024-03-06T01:56:50;6.3;76.6
78479;SHT31;67769;51.972;5.668;2024-03-06T01:59:21;6.2;76.5
78479;SHT31;67769;51.972;5.668;2024-03-06T02:01:53;6.2;76.3
78479;SHT31;67769;51.972;5.668;2024-03-06T02:04:24;6.1;76.2
78479;SHT31;67769;51.972;5.668;2024-03-06T02:06:54;6.1;77.1
78479;SHT31;67769;51.972;5.668;2024-03-06T02:09:23;6.1;77.2
78479;SHT31;67769;51.972;5.668;2024-03-06T02:11:52;6.1;76.6
78479;SHT31;67769;51.972;5.668;2024-03-06T02:14:20;6.1;76.1
78479;SHT31;67769;51.972;5.668;2024-03-06T02:16:49;6.0;76.3
78479;SHT31;67769;51.972;5.668;2024-03-06T02:19:18;5.9;77.1
78479;SHT31;67769;51.972;5.668;2024-03-06T02:21:46;5.9;77.6
78479;SHT31;67769;51.972;5.668;2024-03-06T02:24:15;5.9;78.4
78479;SHT31;67769;51.972;5.668;2024-03-06T02:26:43;5.8;78.4
78479;SHT31;67769;51.972;5.668;2024-03-06T02:29:12;5.8;77.7
78479;SHT31;67769;51.972;5.668;2024-03-06T02:31:41;5.8;77.3
78479;SHT31;67769;51.972;5.668;2024-03-06T02:34:10;5.8;77.0
78479;SHT31;67769;51.972;5.668;2024-03-06T02:36:38;5.8;76.9
78479;SHT31;67769;51.972;5.668;2024-03-06T02:39:07;5.7;77.1
78479;SHT31;67769;51.972;5.668;2024-03-06T02:41:36;5.7;77.2
78479;SHT31;67769;51.972;5.668;2024-03-06T02:44:04;5.7;77.0
78479;SHT31;67769;51.972;5.668;2024-03-06T02:46:35;5.7;76.9
78479;SHT31;67769;51.972;5.668;2024-03-06T02:49:05;5.6;76.8
78479;SHT31;67769;51.972;5.668;2024-03-06T02:51:34;5.6;76.6
78479;SHT31;67769;51.972;5.668;2024-03-06T02:54:03;5.5;76.9
78479;SHT31;67769;51.972;5.668;2024-03-06T02:56:31;5.5;76.9
78479;SHT31;67769;51.972;5.668;2024-03-06T02:59:00;5.5;77.2
78479;SHT31;67769;51.972;5.668;2024-03-06T03:01:29;5.4;78.2
78479;SHT31;67769;51.972;5.668;2024-03-06T03:03:58;5.4;79.4
78479;SHT31;67769;51.972;5.668;2024-03-06T03:06:27;5.4;80.1
78479;SHT31;67769;51.972;5.668;2024-03-06T03:08:55;5.4;79.9
78479;SHT31;67769;51.972;5.668;2024-03-06T03:11:24;5.4;79.6
78479;SHT31;67769;51.972;5.668;2024-03-06T03:13:52;5.4;79.8
78479;SHT31;67769;51.972;5.668;2024-03-06T03:16:21;5.4;79.9
78479;SHT31;67769;51.972;5.668;2024-03-06T03:18:49;5.4;79.5
78479;SHT31;67769;51.972;5.668;2024-03-06T03:21:20;5.4;80.0
78479;SHT31;67769;51.972;5.668;2024-03-06T03:23:49;5.5;80.1
78479;SHT31;67769;51.972;5.668;2024-03-06T03:26:18;5.5;80.0
78479;SHT31;67769;51.972;5.668;2024-03-06T03:28:49;5.5;79.8
78479;SHT31;67769;51.972;5.668;2024-03-06T03:31:17;5.5;78.9
78479;SHT31;67769;51.972;5.668;2024-03-06T03:33:47;5.6;78.1
78479;SHT31;67769;51.972;5.668;2024-03-06T03:36:16;5.6;77.6
78479;SHT31;67769;51.972;5.668;2024-03-06T03:38:44;5.5;77.4
78479;SHT31;67769;51.972;5.668;2024-03-06T03:41:13;5.5;77.4
78479;SHT31;67769;51.972;5.668;2024-03-06T03:43:42;5.5;78.1
78479;SHT31;67769;51.972;5.668;2024-03-06T03:46:11;5.5;78.3
78479;SHT31;67769;51.972;5.668;2024-03-06T03:48:40;5.5;78.8
78479;SHT31;67769;51.972;5.668;2024-03-06T03:51:09;5.5;78.8
78479;SHT31;67769;51.972;5.668;2024-03-06T03:53:38;5.5;78.5
78479;SHT31;67769;51.972;5.668;2024-03-06T03:56:07;5.5;78.1
78479;SHT31;67769;51.972;5.668;2024-03-06T03:58:36;5.5;77.5
78479;SHT31;67769;51.972;5.668;2024-03-06T04:01:05;5.5;77.1
78479;SHT31;67769;51.972;5.668;2024-03-06T04:03:34;5.4;77.3
78479;SHT31;67769;51.972;5.668;2024-03-06T04:06:03;5.4;77.8
78479;SHT31;67769;51.972;5.668;2024-03-06T04:08:35;5.4;77.6
78479;SHT31;67769;51.972;5.668;2024-03-06T04:11:04;5.4;77.3
78479;SHT31;67769;51.972;5.668;2024-03-06T04:13:38;5.3;77.3
78479;SHT31;67769;51.972;5.668;2024-03-06T04:16:07;5.3;77.1
78479;SHT31;67769;51.972;5.668;2024-03-06T04:18:35;5.3;77.2
78479;SHT31;67769;51.972;5.668;2024-03-06T04:21:06;5.3;77.1
78479;SHT31;67769;51.972;5.668;2024-03-06T04:23:36;5.2;77.1
78479;SHT31;67769;51.972;5.668;2024-03-06T04:26:05;5.2;77.4
78479;SHT31;67769;51.972;5.668;2024-03-06T04:28:36;5.2;77.3
78479;SHT31;67769;51.972;5.668;2024-03-06T04:31:05;5.2;77.1
78479;SHT31;67769;51.972;5.668;2024-03-06T04:33:34;5.1;77.0
78479;SHT31;67769;51.972;5.668;2024-03-06T04:36:03;5.1;77.0
78479;SHT31;67769;51.972;5.668;2024-03-06T04:51:46;5.6;75.1
78479;SHT31;67769;51.972;5.668;2024-03-06T04:54:14;5.6;75.0
78479;SHT31;67769;51.972;5.668;2024-03-06T04:56:43;5.6;74.6
78479;SHT31;67769;51.972;5.668;2024-03-06T04:59:11;5.5;74.6
78479;SHT31;67769;51.972;5.668;2024-03-06T05:01:42;5.5;75.2
78479;SHT31;67769;51.972;5.668;2024-03-06T05:04:11;5.5;74.9
78479;SHT31;67769;51.972;5.668;2024-03-06T05:06:40;5.5;74.7
78479;SHT31;67769;51.972;5.668;2024-03-06T05:09:08;5.4;74.4
78479;SHT31;67769;51.972;5.668;2024-03-06T05:11:38;5.4;74.9
78479;SHT31;67769;51.972;5.668;2024-03-06T05:14:07;5.3;75.2
78479;SHT31;67769;51.972;5.668;2024-03-06T05:16:36;5.2;75.2
78479;SHT31;67769;51.972;5.668;2024-03-06T05:19:04;5.2;75.3
78479;SHT31;67769;51.972;5.668;2024-03-06T05:21:33;5.1;75.4
78479;SHT31;67769;51.972;5.668;2024-03-06T05:24:02;5.1;75.6
78479;SHT31;67769;51.972;5.668;2024-03-06T05:26:31;5.0;75.7
78479;SHT31;67769;51.972;5.668;2024-03-06T05:29:01;4.9;76.1
78479;SHT31;67769;51.972;5.668;2024-03-06T05:31:29;4.9;76.3
78479;SHT31;67769;51.972;5.668;2024-03-06T05:34:00;4.9;76.6
78479;SHT31;67769;51.972;5.668;2024-03-06T05:36:28;4.8;77.3
78479;SHT31;67769;51.972;5.668;2024-03-06T05:38:57;4.8;77.0
78479;SHT31;67769;51.972;5.668;2024-03-06T05:41:26;4.8;76.5
78479;SHT31;67769;51.972;5.668;2024-03-06T05:43:54;4.8;76.3
78479;SHT31;67769;51.972;5.668;2024-03-06T05:46:23;4.8;76.3
78479;SHT31;67769;51.972;5.668;2024-03-06T05:48:52;4.7;76.3
78479;SHT31;67769;51.972;5.668;2024-03-06T05:51:22;4.7;76.4
78479;SHT31;67769;51.972;5.668;2024-03-06T05:53:51;4.6;76.5
78479;SHT31;67769;51.972;5.668;2024-03-06T05:56:20;4.6;76.7
78479;SHT31;67769;51.972;5.668;2024-03-06T05:58:48;4.6;77.1
78479;SHT31;67769;51.972;5.668;2024-03-06T06:01:17;4.5;78.2
78479;SHT31;67769;51.972;5.668;2024-03-06T06:03:48;4.5;78.9
78479;SHT31;67769;51.972;5.668;2024-03-06T06:06:18;4.5;78.9
78479;SHT31;67769;51.972;5.668;2024-03-06T06:08:47;4.5;78.6
78479;SHT31;67769;51.972;5.668;2024-03-06T06:11:16;4.5;78.6
78479;SHT31;67769;51.972;5.668;2024-03-06T06:13:44;4.5;78.8
78479;SHT31;67769;51.972;5.668;2024-03-06T06:16:14;4.6;79.6
78479;SHT31;67769;51.972;5.668;2024-03-06T06:18:43;4.6;80.2
78479;SHT31;67769;51.972;5.668;2024-03-06T06:21:12;4.6;80.6
78479;SHT31;67769;51.972;5.668;2024-03-06T06:23:40;4.7;80.2
78479;SHT31;67769;51.972;5.668;2024-03-06T06:26:09;4.7;81.7
78479;SHT31;67769;51.972;5.668;2024-03-06T06:28:40;4.8;84.8
78479;SHT31;67769;51.972;5.668;2024-03-06T06:31:09;4.8;86.9
78479;SHT31;67769;51.972;5.668;2024-03-06T06:33:38;5.0;88.5
78479;SHT31;67769;51.972;5.668;2024-03-06T06:36:07;5.1;89.1
78479;SHT31;67769;51.972;5.668;2024-03-06T06:38:35;5.2;89.4
78479;SHT31;67769;51.972;5.668;2024-03-06T06:41:04;5.3;89.1
78479;SHT31;67769;51.972;5.668;2024-03-06T06:43:33;5.5;88.4
78479;SHT31;67769;51.972;5.668;2024-03-06T06:46:01;5.6;88.0
78479;SHT31;67769;51.972;5.668;2024-03-06T06:48:32;5.8;87.6
78479;SHT31;67769;51.972;5.668;2024-03-06T06:51:01;5.9;87.1
78479;SHT31;67769;51.972;5.668;2024-03-06T06:53:30;6.0;86.4
78479;SHT31;67769;51.972;5.668;2024-03-06T06:55:58;6.2;85.7
78479;SHT31;67769;51.972;5.668;2024-03-06T06:58:27;6.3;85.6
78479;SHT31;67769;51.972;5.668;2024-03-06T07:00:55;6.4;85.5
78479;SHT31;67769;51.972;5.668;2024-03-06T07:03:25;6.4;85.0
78479;SHT31;67769;51.972;5.668;2024-03-06T07:05:56;6.5;84.5
78479;SHT31;67769;51.972;5.668;2024-03-06T07:08:25;6.5;83.9
78479;SHT31;67769;51.972;5.668;2024-03-06T07:10:56;6.5;83.2
78479;SHT31;67769;51.972;5.668;2024-03-06T07:13:24;6.5;82.8
78479;SHT31;67769;51.972;5.668;2024-03-06T07:15:55;6.5;82.8
78479;SHT31;67769;51.972;5.668;2024-03-06T07:18:27;6.5;82.7
78479;SHT31;67769;51.972;5.668;2024-03-06T07:20:55;6.4;82.6
78479;SHT31;67769;51.972;5.668;2024-03-06T08:55:47;7.6;82.2
78479;SHT31;67769;51.972;5.668;2024-03-06T08:58:16;7.7;82.1
78479;SHT31;67769;51.972;5.668;2024-03-06T09:00:47;7.8;81.8
78479;SHT31;67769;51.972;5.668;2024-03-06T09:03:15;7.8;81.2
78479;SHT31;67769;51.972;5.668;2024-03-06T09:05:44;7.8;81.8
78479;SHT31;67769;51.972;5.668;2024-03-06T09:08:12;7.8;81.6
78479;SHT31;67769;51.972;5.668;2024-03-06T09:10:41;7.7;82.2
78479;SHT31;67769;51.972;5.668;2024-03-06T09:13:09;7.7;83.0
78479;SHT31;67769;51.972;5.668;2024-03-06T09:15:38;7.7;83.6
78479;SHT31;67769;51.972;5.668;2024-03-06T09:18:09;7.7;84.3
78479;SHT31;67769;51.972;5.668;2024-03-06T09:20:40;7.8;84.3
78479;SHT31;67769;51.972;5.668;2024-03-06T09:23:09;7.8;84.7
78479;SHT31;67769;51.972;5.668;2024-03-06T09:25:38;7.8;84.9
78479;SHT31;67769;51.972;5.668;2024-03-06T09:28:07;7.9;85.0
78479;SHT31;67769;51.972;5.668;2024-03-06T09:30:35;8.0;85.3
78479;SHT31;67769;51.972;5.668;2024-03-06T09:33:04;8.1;85.0
78479;SHT31;67769;51.972;5.668;2024-03-06T09:35:33;8.2;84.1
78479;SHT31;67769;51.972;5.668;2024-03-06T09:38:01;8.2;83.1
78479;SHT31;67769;51.972;5.668;2024-03-06T09:40:30;8.2;82.8
78479;SHT31;67769;51.972;5.668;2024-03-06T09:42:59;8.2;82.6
78479;SHT31;67769;51.972;5.668;2024-03-06T09:45:29;8.2;82.6
78479;SHT31;67769;51.972;5.668;2024-03-06T09:47:58;8.2;82.8
78479;SHT31;67769;51.972;5.668;2024-03-06T09:50:29;8.2;83.6
78479;SHT31;67769;51.972;5.668;2024-03-06T09:53:04;8.2;83.8
78479;SHT31;67769;51.972;5.668;2024-03-06T09:55:34;8.3;83.0
78479;SHT31;67769;51.972;5.668;2024-03-06T09:58:04;8.3;83.0
78479;SHT31;67769;51.972;5.668;2024-03-06T10:00:35;8.3;82.3
78479;SHT31;67769;51.972;5.668;2024-03-06T10:03:04;8.3;82.4
78479;SHT31;67769;51.972;5.668;2024-03-06T10:05:35;8.4;83.4
78479;SHT31;67769;51.972;5.668;2024-03-06T10:08:04;8.4;83.8
78479;SHT31;67769;51.972;5.668;2024-03-06T10:10:35;8.5;83.7
78479;SHT31;67769;51.972;5.668;2024-03-06T10:13:03;8.6;83.7
78479;SHT31;67769;51.972;5.668;2024-03-06T10:15:34;8.6;83.7
78479;SHT31;67769;51.972;5.668;2024-03-06T10:18:13;8.8;82.7
78479;SHT31;67769;51.972;5.668;2024-03-06T10:20:44;8.8;82.6
78479;SHT31;67769;51.972;5.668;2024-03-06T10:23:13;8.9;82.0
78479;SHT31;67769;51.972;5.668;2024-03-06T10:25:42;9.0;81.0
78479;SHT31;67769;51.972;5.668;2024-03-06T10:28:12;9.0;80.1
78479;SHT31;67769;51.972;5.668;2024-03-06T10:30:42;9.1;80.2
78479;SHT31;67769;51.972;5.668;2024-03-06T10:33:13;9.1;81.3
78479;SHT31;67769;51.972;5.668;2024-03-06T10:35:43;9.1;80.3
78479;SHT31;67769;51.972;5.668;2024-03-06T10:38:12;9.2;79.8
78479;SHT31;67769;51.972;5.668;2024-03-06T10:40:43;9.2;80.7
78479;SHT31;67769;51.972;5.668;2024-03-06T10:43:11;9.3;80.3
78479;SHT31;67769;51.972;5.668;2024-03-06T10:45:47;9.4;79.7
78479;SHT31;67769;51.972;5.668;2024-03-06T10:48:17;9.5;79.2
78479;SHT31;67769;51.972;5.668;2024-03-06T10:50:48;9.5;78.1
78479;SHT31;67769;51.972;5.668;2024-03-06T10:53:18;9.6;78.9
78479;SHT31;67769;51.972;5.668;2024-03-06T10:55:50;9.6;78.6
78479;SHT31;67769;51.972;5.668;2024-03-06T10:58:20;9.6;77.8
78479;SHT31;67769;51.972;5.668;2024-03-06T11:00:53;9.7;77.1
78479;SHT31;67769;51.972;5.668;2024-03-06T11:03:27;9.6;76.7
78479;SHT31;67769;51.972;5.668;2024-03-06T11:05:58;9.6;78.1
78479;SHT31;67769;51.972;5.668;2024-03-06T11:08:27;9.7;78.3
78479;SHT31;67769;51.972;5.668;2024-03-06T11:11:20;9.7;78.0
78479;SHT31;67769;51.972;5.668;2024-03-06T11:13:49;9.8;78.3
78479;SHT31;67769;51.972;5.668;2024-03-06T11:16:18;9.9;77.4
78479;SHT31;67769;51.972;5.668;2024-03-06T11:18:46;10.0;75.9
78479;SHT31;67769;51.972;5.668;2024-03-06T11:21:32;10.0;76.3
78479;SHT31;67769;51.972;5.668;2024-03-06T11:24:34;10.0;78.2
78479;SHT31;67769;51.972;5.668;2024-03-06T11:27:04;10.1;77.9
78479;SHT31;67769;51.972;5.668;2024-03-06T11:31:58;10.2;78.2
78479;SHT31;67769;51.972;5.668;2024-03-06T11:34:31;10.4;75.2
78479;SHT31;67769;51.972;5.668;2024-03-06T11:37:03;10.5;75.7
78479;SHT31;67769;51.972;5.668;2024-03-06T11:39:37;10.5;75.4
78479;SHT31;67769;51.972;5.668;2024-03-06T11:42:07;10.6;74.9
78479;SHT31;67769;51.972;5.668;2024-03-06T11:44:51;10.6;75.4
78479;SHT31;67769;51.972;5.668;2024-03-06T11:47:10;10.7;75.8
78479;SHT31;67769;51.972;5.668;2024-03-06T11:49:40;10.8;74.7
78479;SHT31;67769;51.972;5.668;2024-03-06T11:52:09;10.9;73.8
78479;SHT31;67769;51.972;5.668;2024-03-06T11:54:38;11.0;73.4
78479;SHT31;67769;51.972;5.668;2024-03-06T11:57:06;11.0;74.1
78479;SHT31;67769;51.972;5.668;2024-03-06T11:59:37;11.1;72.6
78479;SHT31;67769;51.972;5.668;2024-03-06T12:02:06;11.1;72.9
78479;SHT31;67769;51.972;5.668;2024-03-06T12:04:36;11.1;73.5
78479;SHT31;67769;51.972;5.668;2024-03-06T12:07:05;11.2;74.3
78479;SHT31;67769;51.972;5.668;2024-03-06T12:09:36;11.2;73.4
78479;SHT31;67769;51.972;5.668;2024-03-06T12:12:06;11.3;72.2
78479;SHT31;67769;51.972;5.668;2024-03-06T12:14:36;11.3;71.2
78479;SHT31;67769;51.972;5.668;2024-03-06T12:17:10;11.3;70.8
78479;SHT31;67769;51.972;5.668;2024-03-06T12:19:42;11.2;71.7
78479;SHT31;67769;51.972;5.668;2024-03-06T12:22:12;11.2;72.2
78479;SHT31;67769;51.972;5.668;2024-03-06T12:24:41;11.1;72.8
78479;SHT31;67769;51.972;5.668;2024-03-06T12:27:12;11.1;72.1
78479;SHT31;67769;51.972;5.668;2024-03-06T12:29:41;11.1;72.6
78479;SHT31;67769;51.972;5.668;2024-03-06T12:32:17;11.1;72.8
78479;SHT31;67769;51.972;5.668;2024-03-06T12:34:59;11.1;73.0
78479;SHT31;67769;51.972;5.668;2024-03-06T12:37:32;11.1;73.9
78479;SHT31;67769;51.972;5.668;2024-03-06T12:40:01;11.2;74.2
78479;SHT31;67769;51.972;5.668;2024-03-06T12:42:31;11.2;73.1
78479;SHT31;67769;51.972;5.668;2024-03-06T12:44:59;11.3;73.3
78479;SHT31;67769;51.972;5.668;2024-03-06T12:47:29;11.3;71.9
78479;SHT31;67769;51.972;5.668;2024-03-06T12:49:58;11.3;73.3
78479;SHT31;67769;51.972;5.668;2024-03-06T12:52:26;11.4;71.1
78479;SHT31;67769;51.972;5.668;2024-03-06T12:54:55;11.4;72.2
78479;SHT31;67769;51.972;5.668;2024-03-06T12:57:23;11.5;73.1
78479;SHT31;67769;51.972;5.668;2024-03-06T12:59:52;11.6;72.6
78479;SHT31;67769;51.972;5.668;2024-03-06T13:02:20;11.7;71.9
78479;SHT31;67769;51.972;5.668;2024-03-06T13:04:49;11.8;70.1
78479;SHT31;67769;51.972;5.668;2024-03-06T13:07:17;11.8;69.3
78479;SHT31;67769;51.972;5.668;2024-03-06T13:09:46;11.9;68.9
78479;SHT31;67769;51.972;5.668;2024-03-06T13:12:15;11.9;70.2
78479;SHT31;67769;51.972;5.668;2024-03-06T13:14:43;11.9;68.9
78479;SHT31;67769;51.972;5.668;2024-03-06T13:17:12;12.0;68.6
78479;SHT31;67769;51.972;5.668;2024-03-06T13:19:41;12.1;67.4
78479;SHT31;67769;51.972;5.668;2024-03-06T13:22:11;12.2;68.2
78479;SHT31;67769;51.972;5.668;2024-03-06T13:24:41;12.3;67.5
78479;SHT31;67769;51.972;5.668;2024-03-06T13:27:11;12.4;66.3
78479;SHT31;67769;51.972;5.668;2024-03-06T13:29:40;12.5;62.4
78479;SHT31;67769;51.972;5.668;2024-03-06T13:32:08;12.6;62.9
78479;SHT31;67769;51.972;5.668;2024-03-06T13:34:37;12.6;61.5
78479;SHT31;67769;51.972;5.668;2024-03-06T13:37:05;12.7;60.8
78479;SHT31;67769;51.972;5.668;2024-03-06T13:39:36;12.7;62.9
78479;SHT31;67769;51.972;5.668;2024-03-06T13:42:06;12.8;61.6
78479;SHT31;67769;51.972;5.668;2024-03-06T13:44:36;12.8;62.3
78479;SHT31;67769;51.972;5.668;2024-03-06T13:47:05;12.8;62.0
78479;SHT31;67769;51.972;5.668;2024-03-06T13:49:39;12.8;60.8
78479;SHT31;67769;51.972;5.668;2024-03-06T13:52:10;12.8;61.6
78479;SHT31;67769;51.972;5.668;2024-03-06T13:54:42;12.8;62.3
78479;SHT31;67769;51.972;5.668;2024-03-06T13:57:11;12.9;60.7
78479;SHT31;67769;51.972;5.668;2024-03-06T13:59:40;12.9;59.0
78479;SHT31;67769;51.972;5.668;2024-03-06T14:02:09;12.8;58.8
78479;SHT31;67769;51.972;5.668;2024-03-06T14:04:37;12.8;59.2
78479;SHT31;67769;51.972;5.668;2024-03-06T14:07:06;12.8;59.8
78479;SHT31;67769;51.972;5.668;2024-03-06T14:09:34;12.9;60.6
78479;SHT31;67769;51.972;5.668;2024-03-06T14:12:04;12.9;59.2
78479;SHT31;67769;51.972;5.668;2024-03-06T14:14:34;12.9;59.2
78479;SHT31;67769;51.972;5.668;2024-03-06T14:17:03;13.0;57.7
78479;SHT31;67769;51.972;5.668;2024-03-06T14:19:32;13.0;57.3
78479;SHT31;67769;51.972;5.668;2024-03-06T14:22:00;13.0;58.2
78479;SHT31;67769;51.972;5.668;2024-03-06T14:24:29;13.0;57.6
78479;SHT31;67769;51.972;5.668;2024-03-06T14:26:58;13.0;57.8
78479;SHT31;67769;51.972;5.668;2024-03-06T14:29:26;13.0;56.7
78479;SHT31;67769;51.972;5.668;2024-03-06T14:31:56;13.0;56.2
78479;SHT31;67769;51.972;5.668;2024-03-06T14:34:24;13.0;54.7
78479;SHT31;67769;51.972;5.668;2024-03-06T14:36:53;13.0;54.9
78479;SHT31;67769;51.972;5.668;2024-03-06T14:39:22;12.9;55.5
78479;SHT31;67769;51.972;5.668;2024-03-06T14:41:55;12.9;55.6
78479;SHT31;67769;51.972;5.668;2024-03-06T14:44:25;12.9;56.0
78479;SHT31;67769;51.972;5.668;2024-03-06T14:46:56;12.9;57.8
78479;SHT31;67769;51.972;5.668;2024-03-06T14:49:24;12.9;58.1
78479;SHT31;67769;51.972;5.668;2024-03-06T14:51:53;12.9;57.2
78479;SHT31;67769;51.972;5.668;2024-03-06T14:54:22;12.9;57.6
78479;SHT31;67769;51.972;5.668;2024-03-06T14:56:54;12.9;58.7
78479;SHT31;67769;51.972;5.668;2024-03-06T14:59:22;12.8;58.0
78479;SHT31;67769;51.972;5.668;2024-03-06T15:01:51;12.8;57.8
78479;SHT31;67769;51.972;5.668;2024-03-06T15:04:19;12.8;58.9
78479;SHT31;67769;51.972;5.668;2024-03-06T15:06:48;12.8;59.3
78479;SHT31;67769;51.972;5.668;2024-03-06T15:09:16;12.9;58.1
78479;SHT31;67769;51.972;5.668;2024-03-06T15:11:48;12.9;58.3
78479;SHT31;67769;51.972;5.668;2024-03-06T15:14:18;12.9;58.0
78479;SHT31;67769;51.972;5.668;2024-03-06T15:16:47;12.9;58.5
78479;SHT31;67769;51.972;5.668;2024-03-06T15:19:16;12.9;58.8
78479;SHT31;67769;51.972;5.668;2024-03-06T15:21:45;12.9;58.3
78479;SHT31;67769;51.972;5.668;2024-03-06T15:24:13;13.0;56.6
78479;SHT31;67769;51.972;5.668;2024-03-06T15:26:43;13.0;56.8
78479;SHT31;67769;51.972;5.668;2024-03-06T15:29:11;13.0;57.6
78479;SHT31;67769;51.972;5.668;2024-03-06T15:31:40;13.0;57.7
78479;SHT31;67769;51.972;5.668;2024-03-06T15:34:10;13.0;56.9
78479;SHT31;67769;51.972;5.668;2024-03-06T15:36:39;13.0;56.2
78479;SHT31;67769;51.972;5.668;2024-03-06T15:39:07;13.0;56.4
78479;SHT31;67769;51.972;5.668;2024-03-06T15:41:36;13.0;56.3
78479;SHT31;67769;51.972;5.668;2024-03-06T15:44:05;13.0;56.6
78479;SHT31;67769;51.972;5.668;2024-03-06T15:46:34;13.0;56.5
78479;SHT31;67769;51.972;5.668;2024-03-06T15:49:20;13.0;56.9
78479;SHT31;67769;51.972;5.668;2024-03-06T15:51:53;13.0;57.1
78479;SHT31;67769;51.972;5.668;2024-03-06T15:54:22;13.0;56.5
78479;SHT31;67769;51.972;5.668;2024-03-06T15:56:53;13.0;57.1
78479;SHT31;67769;51.972;5.668;2024-03-06T15:59:21;12.9;56.6
78479;SHT31;67769;51.972;5.668;2024-03-06T16:01:50;12.9;57.8
78479;SHT31;67769;51.972;5.668;2024-03-06T16:04:18;12.9;57.5
78479;SHT31;67769;51.972;5.668;2024-03-06T16:06:47;12.9;57.2
78479;SHT31;67769;51.972;5.668;2024-03-06T16:09:16;12.9;57.4
78479;SHT31;67769;51.972;5.668;2024-03-06T16:11:44;12.9;57.1
78479;SHT31;67769;51.972;5.668;2024-03-06T16:14:13;12.9;58.6
78479;SHT31;67769;51.972;5.668;2024-03-06T16:16:43;12.8;57.7
78479;SHT31;67769;51.972;5.668;2024-03-06T16:19:12;12.8;57.1
78479;SHT31;67769;51.972;5.668;2024-03-06T16:21:42;12.8;58.3
78479;SHT31;67769;51.972;5.668;2024-03-06T16:24:11;12.8;59.1
78479;SHT31;67769;51.972;5.668;2024-03-06T16:26:39;12.8;59.7
78479;SHT31;67769;51.972;5.668;2024-03-06T16:29:09;12.8;60.2
78479;SHT31;67769;51.972;5.668;2024-03-06T16:31:38;12.7;59.2
78479;SHT31;67769;51.972;5.668;2024-03-06T16:34:06;12.7;58.1
78479;SHT31;67769;51.972;5.668;2024-03-06T16:36:35;12.7;59.7
78479;SHT31;67769;51.972;5.668;2024-03-06T16:39:06;12.6;60.5
78479;SHT31;67769;51.972;5.668;2024-03-06T16:41:34;12.6;59.3
78479;SHT31;67769;51.972;5.668;2024-03-06T16:44:04;12.5;60.1
78479;SHT31;67769;51.972;5.668;2024-03-06T16:46:34;12.5;61.0
78479;SHT31;67769;51.972;5.668;2024-03-06T16:49:03;12.4;59.1
78479;SHT31;67769;51.972;5.668;2024-03-06T16:51:33;12.4;58.9
78479;SHT31;67769;51.972;5.668;2024-03-06T16:54:02;12.3;60.2
78479;SHT31;67769;51.972;5.668;2024-03-06T16:56:31;12.3;60.8
78479;SHT31;67769;51.972;5.668;2024-03-06T16:59:00;12.2;61.5
78479;SHT31;67769;51.972;5.668;2024-03-06T17:01:30;12.1;60.5
78479;SHT31;67769;51.972;5.668;2024-03-06T17:04:01;12.1;60.0
78479;SHT31;67769;51.972;5.668;2024-03-06T17:06:29;12.0;61.8
78479;SHT31;67769;51.972;5.668;2024-03-06T17:08:58;12.0;62.6
78479;SHT31;67769;51.972;5.668;2024-03-06T17:11:27;11.9;62.6
78479;SHT31;67769;51.972;5.668;2024-03-06T17:13:55;11.9;62.7
78479;SHT31;67769;51.972;5.668;2024-03-06T17:16:24;11.8;63.1
78479;SHT31;67769;51.972;5.668;2024-03-06T17:18:53;11.7;63.5
78479;SHT31;67769;51.972;5.668;2024-03-06T17:21:21;11.7;63.5
78479;SHT31;67769;51.972;5.668;2024-03-06T17:23:50;11.6;63.9
78479;SHT31;67769;51.972;5.668;2024-03-06T17:26:20;11.6;64.0
78479;SHT31;67769;51.972;5.668;2024-03-06T17:28:48;11.5;64.1
78479;SHT31;67769;51.972;5.668;2024-03-06T17:31:17;11.5;64.2
78479;SHT31;67769;51.972;5.668;2024-03-06T17:33:46;11.4;64.6
78479;SHT31;67769;51.972;5.668;2024-03-06T17:36:14;11.4;64.6
78479;SHT31;67769;51.972;5.668;2024-03-06T17:38:43;11.3;64.6
78479;SHT31;67769;51.972;5.668;2024-03-06T17:41:13;11.2;65.0
78479;SHT31;67769;51.972;5.668;2024-03-06T17:43:43;11.1;65.2
78479;SHT31;67769;51.972;5.668;2024-03-06T17:46:12;11.1;65.6
78479;SHT31;67769;51.972;5.668;2024-03-06T17:48:41;11.0;65.6
78479;SHT31;67769;51.972;5.668;2024-03-06T17:51:11;10.9;65.8
78479;SHT31;67769;51.972;5.668;2024-03-06T17:53:41;10.9;65.9
78479;SHT31;67769;51.972;5.668;2024-03-06T17:56:12;10.8;66.2
78479;SHT31;67769;51.972;5.668;2024-03-06T17:58:41;10.7;66.8
78479;SHT31;67769;51.972;5.668;2024-03-06T18:01:09;10.7;66.9
78479;SHT31;67769;51.972;5.668;2024-03-06T18:03:39;10.6;66.9
78479;SHT31;67769;51.972;5.668;2024-03-06T18:06:09;10.6;67.4
78479;SHT31;67769;51.972;5.668;2024-03-06T18:08:38;10.5;67.4
78479;SHT31;67769;51.972;5.668;2024-03-06T18:11:07;10.4;67.6
78479;SHT31;67769;51.972;5.668;2024-03-06T18:13:36;10.3;68.0